• Join FlightAware (Why Join?)
  • Login
  • US Flag 
07:26PM EST


 

Airport Tracker/Info


-or-


 

Live Flight TrackerFlight Track Log ✈ DAL3676 ✈ 05-Apr-2013 ✈ KHSV - KDTW

Flight Track Log - Related Links

Times and Time Zones

All times are in EDT time to prevent confusion due to time zone crossing. See the DAL3676 flight status page for this flight to view local times or setup timezone preferences in your user account.

Time Position Orientation Groundspeed Altitude Reporting Facility
EDT Latitude Longitude Course Direction KTS MPH feet Rate Location/Type
06:59PM 34.7217 -86.7642 North 200 230 4,200  Level Memphis Center
07:00PM 34.7861 -86.7614 North 218 251 6,900 2,700 Climbing Memphis Center
07:01PM 34.8592 -86.7558 North 235 270 9,700 2,100 Climbing Memphis Center
07:02PM 34.9383 -86.7550 360° North 256 295 11,200 1,500 Climbing Memphis Center
07:03PM 35.0278 -86.7486 North 294 338 12,700 1,620 Climbing Memphis Center
07:04PM 35.1176 -86.7416 North  Level FlightAware Approximate
07:04PM 35.1131 -86.7397 North 325 374 14,500  Level Memphis Center
07:05PM 35.2145 -86.7319 North  Level FlightAware Approximate
07:05PM 35.2047 -86.7333 North 333 383 16,400  Level Memphis Center
07:06PM 35.3006 -86.7292 North 333 383 18,000 1,380 Climbing Memphis Center
07:08PM 35.4922 -86.7208 North 340 391 20,600 1,020 Climbing Memphis Center
07:09PM 35.5942 -86.7139 North 358 412 21,200 780 Climbing Memphis Center
07:10PM 35.7106 -86.7061 North 371 427 22,200 960 Climbing Memphis Center
07:11PM 35.8211 -86.6986 North 376 433 23,200 960 Climbing Memphis Center
07:12PM 35.9250 -86.6939 North 384 442 24,200 960 Climbing Memphis Center
07:13PM 36.0314 -86.6892 North 384 442 25,200 960 Climbing Memphis Center
07:14PM 36.1356 -86.6844 North 384 442 26,200 1,020 Climbing Memphis Center
07:15PM 36.2358 -86.7006 353° North 373 429 27,300 1,080 Climbing Memphis Center
07:16PM 36.3406 -86.7139 354° North 373 429 28,400 840 Climbing Memphis Center
07:17PM 36.4433 -86.7350 351° North 368 423 29,000 300 Climbing Memphis Center
07:18PM 36.5442 -86.7564 350° North 373 429 29,000  Level Memphis Center
07:19PM 36.6508 -86.7750 352° North 373 429 29,000  Level Memphis Center
07:20PM 36.7619 -86.7958 351° North 385 443 29,000  Level Memphis Center
07:21PM 36.8728 -86.8142 352° North 393 452 29,000  Level Memphis Center
07:24PM 37.1328 -86.8594 352° North 405 466 29,000  Level Indianapolis Center
07:25PM 37.2453 -86.8781 352° North 403 464 29,000  Level Indianapolis Center
07:26PM 37.3789 -86.8778 360° North 412 474 29,000  Level Indianapolis Center
07:27PM 37.4922 -86.8528 10° North 411 473 29,000  Level Indianapolis Center
07:28PM 37.6103 -86.8283 North 406 467 29,000  Level Indianapolis Center
07:29PM 37.7239 -86.8064 North 411 473 29,000  Level Indianapolis Center
07:30PM 37.8364 -86.7819 10° North 410 472 29,000  Level Indianapolis Center
07:31PM 37.9483 -86.7608 North 408 470 29,000  Level Indianapolis Center
07:32PM 38.0603 -86.7361 10° North 410 472 29,000  Level Indianapolis Center
07:33PM 38.1728 -86.7164 North 409 471 29,000  Level Indianapolis Center
07:34PM 38.3067 -86.6869 10° North 410 472 29,000  Level Indianapolis Center
07:35PM 38.4186 -86.6636 North 410 472 29,000  Level Indianapolis Center
07:36PM 38.5314 -86.6408 North 411 473 29,000  Level Indianapolis Center
07:37PM 38.6447 -86.6167 North 412 474 29,000  Level Indianapolis Center
07:38PM 38.7578 -86.5917 10° North 412 474 29,000  Level Indianapolis Center
07:39PM 38.8767 -86.5689 North 412 474 29,000  Level Indianapolis Center
07:40PM 38.9914 -86.5436 10° North 414 476 29,000  Level Indianapolis Center
07:41PM 39.1058 -86.5194 North 414 476 29,000  Level Indianapolis Center
07:42PM 39.2356 -86.4661 18° North 427 491 29,000  Level Indianapolis Center
07:43PM 39.3411 -86.3919 29° Northeast 428 493 29,000  Level Indianapolis Center
07:45PM 39.4450 -86.3156 30° Northeast 428 493 29,000  Level Indianapolis Center
07:46PM 39.5497 -86.2403 29° Northeast 429 494 29,000  Level Indianapolis Center
07:47PM 39.6536 -86.1658 29° Northeast 428 493 29,000  Level Indianapolis Center
07:48PM 39.7739 -86.0797 29° Northeast 429 494 29,000  Level Indianapolis Center
07:49PM 39.8781 -86.0019 30° Northeast 430 495 29,000  Level Indianapolis Center
07:50PM 39.9839 -85.9247 29° Northeast 433 498 29,000  Level Indianapolis Center
07:51PM 40.0897 -85.8483 29° Northeast 433 498 29,000  Level Indianapolis Center
07:51PM 40.1433 -85.8089 29° Northeast 431 496 29,000  Level Chicago Center
07:52PM 40.2478 -85.7314 30° Northeast 430 495 29,000 -120 Level Chicago Center
07:53PM 40.3544 -85.6525 29° Northeast 435 501 28,800 -960 Descending Chicago Center
07:54PM 40.4611 -85.5744 29° Northeast 436 502 27,100 -900 Descending Chicago Center
07:55PM 40.5639 -85.4983 29° Northeast 423 487 27,000 -540 Descending Chicago Center
07:56PM 40.6775 -85.4125 30° Northeast 423 487 26,100 -1,260 Descending Chicago Center
07:57PM 40.7839 -85.3311 30° Northeast 442 509 24,500 -1,560 Descending Chicago Center
07:58PM 40.8922 -85.2508 29° Northeast 447 514 22,900 -1,500 Descending Chicago Center
07:59PM 40.9964 -85.1667 31° Northeast 443 510 21,400 -960 Descending Chicago Center
08:00PM 41.1089 -85.0467 39° Northeast 436 502 21,000 -240 Descending Chicago Center
08:02PM 41.2006 -84.9494 39° Northeast 430 495 21,000  Level Chicago Center
08:03PM 41.2914 -84.8519 39° Northeast 424 488 21,000  Level Chicago Center
08:04PM 41.3814 -84.7539 39° Northeast 421 484 21,000 -780 Level Chicago Center
08:05PM 41.4614 -84.6494 44° Northeast 408 470 19,400 -2,100 Descending Chicago Center
08:05PM 41.5042 -84.5872 47° Northeast 400 460 17,800 -3,120 Descending Cleveland Center
08:06PM 41.5789 -84.4808 47° Northeast 394 453 14,700 -2,880 Descending Cleveland Center
08:07PM 41.6553 -84.3742 46° Northeast 388 447 12,100 -1,800 Descending Cleveland Center
08:08PM 41.6969 -84.3156 46° Northeast 363 418 12,000 -120 Descending Cleveland Center
08:08PM 41.7233 -84.2725 51° Northeast 382 440 12,000  Level Cleveland Center
08:08PM 41.7453 -84.2347 52° Northeast 365 420 12,000  Level Cleveland Center
08:09PM 41.7792 -84.1531 61° Northeast 368 423 12,000  Level Cleveland Center
08:10PM 41.7950 -84.1150 61° Northeast 296 341 12,000  Level Cleveland Center
08:10PM 41.8136 -84.0547 67° East 325 374 12,000  Level Cleveland Center
08:11PM 41.8314 -84.0167 58° Northeast 302 348 12,000 -540 Level Cleveland Center
08:11PM 41.8600 -83.9653 53° Northeast 299 344 11,500 -1,320 Descending Cleveland Center
08:12PM 41.8839 -83.9303 47° Northeast 288 331 10,700 -1,440 Descending Cleveland Center
08:12PM 41.8961 -83.8694 75° East 286 329 10,100 -1,200 Descending Cleveland Center
08:13PM 41.9125 -83.8117 69° East 297 342 9,400 -1,140 Descending Cleveland Center
08:13PM 41.9219 -83.7647 75° East 286 329 9,000 -900 Descending Cleveland Center
08:14PM 41.9361 -83.7125 70° East 244 281 8,500 -900 Descending Cleveland Center
08:14PM 41.9453 -83.6794 70° East 269 310 8,100 -1,200 Descending Cleveland Center
08:15PM 41.9653 -83.6356 58° Northeast 215 247 7,300 -1,320 Descending Cleveland Center
08:15PM 41.9742 -83.6108 64° Northeast 236 272 6,800 -1,380 Descending Cleveland Center
08:16PM 41.9961 -83.5728 52° Northeast 204 235 5,900 -1,200 Descending Cleveland Center
08:16PM 42.0008 -83.5506 74° East 214 246 5,600 -1,200 Descending Cleveland Center
08:17PM 42.0289 -83.5100 47° Northeast 182 209 4,700 -1,200 Descending Cleveland Center
08:17PM 42.0417 -83.4967 38° Northeast 192 221 4,400 -1,020 Descending Cleveland Center
08:18PM 42.0756 -83.4814 19° North 186 214 3,700 -1,080 Descending Cleveland Center
08:19PM 42.1203 -83.4442 32° Northeast 185 213 2,600 -1,020 Descending Cleveland Center
08:20PM 42.1606 -83.4153 28° Northeast 128 147 1,700 -840 Descending Cleveland Center
08:21PM 42.1922 -83.3942 26° Northeast 133 153 1,000 -780 Descending Cleveland Center
08:23PM 42.2000 -83.3500 48° Northeast  Level FlightAware Approximate